sensor_id;sensor_type;location;lat;lon;timestamp;temperature;humidity
67817;DHT22;54614;47.576;7.524;2023-01-15T00:01:28;23.10;54.00
67817;DHT22;54614;47.576;7.524;2023-01-15T00:03:57;23.10;53.90
67817;DHT22;54614;47.576;7.524;2023-01-15T00:06:26;23.10;53.90
67817;DHT22;54614;47.576;7.524;2023-01-15T00:08:53;23.10;53.90
67817;DHT22;54614;47.576;7.524;2023-01-15T00:11:19;23.10;54.00
67817;DHT22;54614;47.576;7.524;2023-01-15T00:13:45;23.00;53.90
67817;DHT22;54614;47.576;7.524;2023-01-15T00:16:18;23.00;53.90
67817;DHT22;54614;47.576;7.524;2023-01-15T00:18:50;23.00;53.90
67817;DHT22;54614;47.576;7.524;2023-01-15T00:21:17;23.00;53.90
67817;DHT22;54614;47.576;7.524;2023-01-15T00:23:44;23.00;53.90
67817;DHT22;54614;47.576;7.524;2023-01-15T00:26:30;23.00;53.90
67817;DHT22;54614;47.576;7.524;2023-01-15T00:29:16;23.00;53.90
67817;DHT22;54614;47.576;7.524;2023-01-15T00:31:44;23.00;54.00
67817;DHT22;54614;47.576;7.524;2023-01-15T00:34:18;23.00;54.00
67817;DHT22;54614;47.576;7.524;2023-01-15T00:36:43;23.00;54.00
67817;DHT22;54614;47.576;7.524;2023-01-15T00:39:09;23.00;53.90
67817;DHT22;54614;47.576;7.524;2023-01-15T00:41:35;23.00;54.00
67817;DHT22;54614;47.576;7.524;2023-01-15T00:44:01;23.00;54.00
67817;DHT22;54614;47.576;7.524;2023-01-15T00:46:27;23.00;54.00
67817;DHT22;54614;47.576;7.524;2023-01-15T00:48:52;23.00;54.00
67817;DHT22;54614;47.576;7.524;2023-01-15T00:51:18;23.00;54.00
67817;DHT22;54614;47.576;7.524;2023-01-15T00:53:44;23.00;54.10
67817;DHT22;54614;47.576;7.524;2023-01-15T00:56:10;22.90;54.00
67817;DHT22;54614;47.576;7.524;2023-01-15T00:58:35;22.90;54.00
67817;DHT22;54614;47.576;7.524;2023-01-15T01:01:01;23.00;54.10
67817;DHT22;54614;47.576;7.524;2023-01-15T01:03:28;22.90;54.00
67817;DHT22;54614;47.576;7.524;2023-01-15T01:06:00;22.90;54.00
67817;DHT22;54614;47.576;7.524;2023-01-15T01:08:27;23.00;54.10
67817;DHT22;54614;47.576;7.524;2023-01-15T01:11:08;22.90;54.10
67817;DHT22;54614;47.576;7.524;2023-01-15T01:13:36;22.90;54.10
67817;DHT22;54614;47.576;7.524;2023-01-15T01:16:04;22.90;54.10
67817;DHT22;54614;47.576;7.524;2023-01-15T01:19:19;22.90;54.10
67817;DHT22;54614;47.576;7.524;2023-01-15T01:21:47;22.90;54.10
67817;DHT22;54614;47.576;7.524;2023-01-15T01:24:16;22.90;54.10
67817;DHT22;54614;47.576;7.524;2023-01-15T01:26:43;22.90;54.10
67817;DHT22;54614;47.576;7.524;2023-01-15T01:29:15;22.90;54.10
67817;DHT22;54614;47.576;7.524;2023-01-15T01:31:42;22.90;54.10
67817;DHT22;54614;47.576;7.524;2023-01-15T01:34:10;22.90;54.10
67817;DHT22;54614;47.576;7.524;2023-01-15T01:36:39;22.90;54.10
67817;DHT22;54614;47.576;7.524;2023-01-15T01:39:12;22.80;54.00
67817;DHT22;54614;47.576;7.524;2023-01-15T01:41:39;22.90;54.10
67817;DHT22;54614;47.576;7.524;2023-01-15T01:46:58;22.80;54.10
67817;DHT22;54614;47.576;7.524;2023-01-15T01:49:26;22.80;54.10
67817;DHT22;54614;47.576;7.524;2023-01-15T01:51:57;22.80;54.10
67817;DHT22;54614;47.576;7.524;2023-01-15T01:54:28;22.80;54.00
67817;DHT22;54614;47.576;7.524;2023-01-15T01:56:57;22.80;54.00
67817;DHT22;54614;47.576;7.524;2023-01-15T01:59:25;22.80;54.00
67817;DHT22;54614;47.576;7.524;2023-01-15T02:01:51;22.80;54.00
67817;DHT22;54614;47.576;7.524;2023-01-15T02:04:20;22.80;54.60
67817;DHT22;54614;47.576;7.524;2023-01-15T02:06:47;22.80;54.10
67817;DHT22;54614;47.576;7.524;2023-01-15T02:09:14;22.80;54.00
67817;DHT22;54614;47.576;7.524;2023-01-15T02:11:39;22.80;54.00
67817;DHT22;54614;47.576;7.524;2023-01-15T02:15:17;22.80;54.00
67817;DHT22;54614;47.576;7.524;2023-01-15T02:17:34;22.80;53.90
67817;DHT22;54614;47.576;7.524;2023-01-15T02:23:19;22.80;54.00
67817;DHT22;54614;47.576;7.524;2023-01-15T02:28:50;22.80;54.00
67817;DHT22;54614;47.576;7.524;2023-01-15T02:31:35;22.80;54.00
67817;DHT22;54614;47.576;7.524;2023-01-15T02:34:12;22.70;53.90
67817;DHT22;54614;47.576;7.524;2023-01-15T02:36:49;22.80;54.00
67817;DHT22;54614;47.576;7.524;2023-01-15T02:39:22;22.80;54.00
67817;DHT22;54614;47.576;7.524;2023-01-15T02:41:53;22.80;53.90
67817;DHT22;54614;47.576;7.524;2023-01-15T02:44:24;22.80;53.90
67817;DHT22;54614;47.576;7.524;2023-01-15T02:46:54;22.70;53.90
67817;DHT22;54614;47.576;7.524;2023-01-15T02:49:22;22.70;53.90
67817;DHT22;54614;47.576;7.524;2023-01-15T02:51:53;22.70;53.90
67817;DHT22;54614;47.576;7.524;2023-01-15T02:54:27;22.70;53.90
67817;DHT22;54614;47.576;7.524;2023-01-15T02:57:01;22.70;53.90
67817;DHT22;54614;47.576;7.524;2023-01-15T02:59:40;22.70;53.90
67817;DHT22;54614;47.576;7.524;2023-01-15T03:02:13;22.70;53.90
67817;DHT22;54614;47.576;7.524;2023-01-15T03:07:48;22.70;53.90
67817;DHT22;54614;47.576;7.524;2023-01-15T03:10:18;22.70;53.90
67817;DHT22;54614;47.576;7.524;2023-01-15T03:12:59;22.70;53.90
67817;DHT22;54614;47.576;7.524;2023-01-15T03:15:52;22.70;53.80
67817;DHT22;54614;47.576;7.524;2023-01-15T03:19:15;22.70;53.90
67817;DHT22;54614;47.576;7.524;2023-01-15T03:22:12;22.70;53.90
67817;DHT22;54614;47.576;7.524;2023-01-15T03:27:16;22.70;53.90
67817;DHT22;54614;47.576;7.524;2023-01-15T03:29:49;22.70;53.90
67817;DHT22;54614;47.576;7.524;2023-01-15T03:32:19;22.70;54.00
67817;DHT22;54614;47.576;7.524;2023-01-15T03:34:50;22.70;54.00
67817;DHT22;54614;47.576;7.524;2023-01-15T03:37:18;22.70;53.90
67817;DHT22;54614;47.576;7.524;2023-01-15T03:39:46;22.70;54.00
67817;DHT22;54614;47.576;7.524;2023-01-15T03:50:50;22.70;54.00
67817;DHT22;54614;47.576;7.524;2023-01-15T03:54:11;22.70;54.00
67817;DHT22;54614;47.576;7.524;2023-01-15T03:56:21;22.70;54.00
67817;DHT22;54614;47.576;7.524;2023-01-15T04:01:34;22.60;54.00
67817;DHT22;54614;47.576;7.524;2023-01-15T04:04:03;22.60;54.00
67817;DHT22;54614;47.576;7.524;2023-01-15T04:06:33;22.60;54.00
67817;DHT22;54614;47.576;7.524;2023-01-15T04:09:06;22.60;54.00
67817;DHT22;54614;47.576;7.524;2023-01-15T04:11:34;22.60;54.00
67817;DHT22;54614;47.576;7.524;2023-01-15T04:14:01;22.60;54.00
67817;DHT22;54614;47.576;7.524;2023-01-15T04:16:30;22.60;54.00
67817;DHT22;54614;47.576;7.524;2023-01-15T04:18:57;22.60;54.00
67817;DHT22;54614;47.576;7.524;2023-01-15T04:21:24;22.60;54.00
67817;DHT22;54614;47.576;7.524;2023-01-15T04:23:49;22.60;54.00
67817;DHT22;54614;47.576;7.524;2023-01-15T04:26:16;22.60;54.00
67817;DHT22;54614;47.576;7.524;2023-01-15T04:28:42;22.60;54.00
67817;DHT22;54614;47.576;7.524;2023-01-15T04:31:08;22.60;54.00
67817;DHT22;54614;47.576;7.524;2023-01-15T04:33:34;22.60;54.00
67817;DHT22;54614;47.576;7.524;2023-01-15T04:36:01;22.60;53.90
67817;DHT22;54614;47.576;7.524;2023-01-15T04:38:27;22.60;53.90
67817;DHT22;54614;47.576;7.524;2023-01-15T04:40:54;22.60;53.80
67817;DHT22;54614;47.576;7.524;2023-01-15T04:43:38;22.60;53.80
67817;DHT22;54614;47.576;7.524;2023-01-15T04:46:24;22.60;53.70
67817;DHT22;54614;47.576;7.524;2023-01-15T04:48:50;22.60;53.70
67817;DHT22;54614;47.576;7.524;2023-01-15T04:51:16;22.60;53.70
67817;DHT22;54614;47.576;7.524;2023-01-15T04:53:43;22.60;53.70
67817;DHT22;54614;47.576;7.524;2023-01-15T04:56:09;22.60;53.70
67817;DHT22;54614;47.576;7.524;2023-01-15T04:58:35;22.60;53.80
67817;DHT22;54614;47.576;7.524;2023-01-15T05:01:01;22.60;53.80
67817;DHT22;54614;47.576;7.524;2023-01-15T05:03:28;22.60;53.80
67817;DHT22;54614;47.576;7.524;2023-01-15T05:06:00;22.60;53.90
67817;DHT22;54614;47.576;7.524;2023-01-15T05:08:27;22.60;53.90
67817;DHT22;54614;47.576;7.524;2023-01-15T05:10:53;22.60;54.00
67817;DHT22;54614;47.576;7.524;2023-01-15T05:13:19;22.60;54.00
67817;DHT22;54614;47.576;7.524;2023-01-15T05:15:45;22.60;54.00
67817;DHT22;54614;47.576;7.524;2023-01-15T05:18:13;22.50;54.00
67817;DHT22;54614;47.576;7.524;2023-01-15T05:20:40;22.50;54.10
67817;DHT22;54614;47.576;7.524;2023-01-15T05:23:07;22.50;54.10
67817;DHT22;54614;47.576;7.524;2023-01-15T05:25:35;22.50;54.00
67817;DHT22;54614;47.576;7.524;2023-01-15T05:28:01;22.50;54.10
67817;DHT22;54614;47.576;7.524;2023-01-15T05:30:27;22.50;54.10
67817;DHT22;54614;47.576;7.524;2023-01-15T05:32:53;22.50;54.10
67817;DHT22;54614;47.576;7.524;2023-01-15T05:35:19;22.50;54.10
67817;DHT22;54614;47.576;7.524;2023-01-15T05:37:45;22.50;54.10
67817;DHT22;54614;47.576;7.524;2023-01-15T05:40:11;22.50;54.10
67817;DHT22;54614;47.576;7.524;2023-01-15T05:42:37;22.50;54.10
67817;DHT22;54614;47.576;7.524;2023-01-15T05:45:03;22.50;54.10
67817;DHT22;54614;47.576;7.524;2023-01-15T05:47:29;22.50;54.10
67817;DHT22;54614;47.576;7.524;2023-01-15T05:49:55;22.60;55.20
67817;DHT22;54614;47.576;7.524;2023-01-15T05:52:21;22.60;54.90
67817;DHT22;54614;47.576;7.524;2023-01-15T05:54:48;22.60;54.70
67817;DHT22;54614;47.576;7.524;2023-01-15T05:57:15;22.50;54.50
67817;DHT22;54614;47.576;7.524;2023-01-15T05:59:40;22.50;54.50
67817;DHT22;54614;47.576;7.524;2023-01-15T06:02:06;22.50;54.40
67817;DHT22;54614;47.576;7.524;2023-01-15T06:04:32;22.50;54.40
67817;DHT22;54614;47.576;7.524;2023-01-15T06:06:58;22.50;54.30
67817;DHT22;54614;47.576;7.524;2023-01-15T06:09:24;22.50;54.20
67817;DHT22;54614;47.576;7.524;2023-01-15T06:11:52;22.50;54.20
67817;DHT22;54614;47.576;7.524;2023-01-15T06:14:20;22.50;54.10
67817;DHT22;54614;47.576;7.524;2023-01-15T06:16:46;22.50;54.10
67817;DHT22;54614;47.576;7.524;2023-01-15T06:19:12;22.50;54.10
67817;DHT22;54614;47.576;7.524;2023-01-15T06:21:39;22.50;54.10
67817;DHT22;54614;47.576;7.524;2023-01-15T06:24:06;22.50;54.00
67817;DHT22;54614;47.576;7.524;2023-01-15T06:26:32;22.50;54.00
67817;DHT22;54614;47.576;7.524;2023-01-15T06:28:58;22.50;53.90
67817;DHT22;54614;47.576;7.524;2023-01-15T06:31:24;22.50;53.90
67817;DHT22;54614;47.576;7.524;2023-01-15T06:33:53;22.40;53.80
67817;DHT22;54614;47.576;7.524;2023-01-15T06:36:23;22.50;53.90
67817;DHT22;54614;47.576;7.524;2023-01-15T06:38:50;22.50;53.90
67817;DHT22;54614;47.576;7.524;2023-01-15T06:41:19;22.40;53.90
67817;DHT22;54614;47.576;7.524;2023-01-15T06:44:05;22.40;53.90
67817;DHT22;54614;47.576;7.524;2023-01-15T06:46:53;22.40;53.80
67817;DHT22;54614;47.576;7.524;2023-01-15T06:49:37;22.50;53.80
67817;DHT22;54614;47.576;7.524;2023-01-15T06:52:04;22.50;53.80
67817;DHT22;54614;47.576;7.524;2023-01-15T06:54:33;22.50;53.90
67817;DHT22;54614;47.576;7.524;2023-01-15T06:56:59;22.50;54.10
67817;DHT22;54614;47.576;7.524;2023-01-15T06:59:25;22.40;54.00
67817;DHT22;54614;47.576;7.524;2023-01-15T07:01:51;22.50;54.10
67817;DHT22;54614;47.576;7.524;2023-01-15T07:04:16;22.50;54.10
67817;DHT22;54614;47.576;7.524;2023-01-15T07:06:42;22.50;54.70
67817;DHT22;54614;47.576;7.524;2023-01-15T07:09:08;22.50;54.10
67817;DHT22;54614;47.576;7.524;2023-01-15T07:11:34;22.40;54.00
67817;DHT22;54614;47.576;7.524;2023-01-15T07:14:00;22.50;54.10
67817;DHT22;54614;47.576;7.524;2023-01-15T07:16:35;22.50;54.20
67817;DHT22;54614;47.576;7.524;2023-01-15T07:19:02;22.50;54.20
67817;DHT22;54614;47.576;7.524;2023-01-15T07:21:29;22.50;54.20
67817;DHT22;54614;47.576;7.524;2023-01-15T07:23:58;22.50;54.10
67817;DHT22;54614;47.576;7.524;2023-01-15T07:26:24;22.50;54.10
67817;DHT22;54614;47.576;7.524;2023-01-15T07:28:51;22.50;54.10
67817;DHT22;54614;47.576;7.524;2023-01-15T07:31:17;22.50;54.20
67817;DHT22;54614;47.576;7.524;2023-01-15T07:33:43;22.50;54.30
67817;DHT22;54614;47.576;7.524;2023-01-15T07:36:09;22.50;54.20
67817;DHT22;54614;47.576;7.524;2023-01-15T07:38:35;22.50;54.20
67817;DHT22;54614;47.576;7.524;2023-01-15T07:41:01;22.50;54.30
67817;DHT22;54614;47.576;7.524;2023-01-15T07:43:46;22.50;54.20
67817;DHT22;54614;47.576;7.524;2023-01-15T07:46:30;22.50;54.20
67817;DHT22;54614;47.576;7.524;2023-01-15T07:49:15;22.50;54.40
67817;DHT22;54614;47.576;7.524;2023-01-15T07:51:59;22.60;55.00
67817;DHT22;54614;47.576;7.524;2023-01-15T07:54:25;22.60;54.70
67817;DHT22;54614;47.576;7.524;2023-01-15T07:56:52;22.60;54.60
67817;DHT22;54614;47.576;7.524;2023-01-15T07:59:19;22.60;54.60
67817;DHT22;54614;47.576;7.524;2023-01-15T08:01:45;22.60;54.50
67817;DHT22;54614;47.576;7.524;2023-01-15T08:04:11;22.60;54.40
67817;DHT22;54614;47.576;7.524;2023-01-15T08:06:37;22.60;54.30
67817;DHT22;54614;47.576;7.524;2023-01-15T08:09:03;22.60;54.60
67817;DHT22;54614;47.576;7.524;2023-01-15T08:11:29;22.50;55.20
67817;DHT22;54614;47.576;7.524;2023-01-15T08:14:14;22.40;55.20
67817;DHT22;54614;47.576;7.524;2023-01-15T08:16:58;22.40;55.40
67817;DHT22;54614;47.576;7.524;2023-01-15T08:19:24;22.40;55.10
67817;DHT22;54614;47.576;7.524;2023-01-15T08:21:50;22.50;54.70
67817;DHT22;54614;47.576;7.524;2023-01-15T08:24:16;22.50;54.50
67817;DHT22;54614;47.576;7.524;2023-01-15T08:26:42;22.60;54.40
67817;DHT22;54614;47.576;7.524;2023-01-15T08:29:08;22.60;54.40
67817;DHT22;54614;47.576;7.524;2023-01-15T08:31:34;22.60;54.20
67817;DHT22;54614;47.576;7.524;2023-01-15T08:34:02;22.60;54.20
67817;DHT22;54614;47.576;7.524;2023-01-15T08:36:28;22.60;54.10
67817;DHT22;54614;47.576;7.524;2023-01-15T08:38:53;22.60;53.90
67817;DHT22;54614;47.576;7.524;2023-01-15T08:41:19;22.60;53.90
67817;DHT22;54614;47.576;7.524;2023-01-15T08:43:45;22.60;53.90
67817;DHT22;54614;47.576;7.524;2023-01-15T08:46:11;22.60;53.90
67817;DHT22;54614;47.576;7.524;2023-01-15T08:48:37;22.60;53.70
67817;DHT22;54614;47.576;7.524;2023-01-15T08:51:07;22.60;53.70
67817;DHT22;54614;47.576;7.524;2023-01-15T08:53:35;22.60;53.40
67817;DHT22;54614;47.576;7.524;2023-01-15T08:56:01;22.60;53.50
67817;DHT22;54614;47.576;7.524;2023-01-15T08:58:31;22.60;53.80
67817;DHT22;54614;47.576;7.524;2023-01-15T09:01:06;22.60;53.90
67817;DHT22;54614;47.576;7.524;2023-01-15T09:03:34;22.60;53.60
67817;DHT22;54614;47.576;7.524;2023-01-15T09:06:01;22.50;54.10
67817;DHT22;54614;47.576;7.524;2023-01-15T09:08:28;22.40;54.40
67817;DHT22;54614;47.576;7.524;2023-01-15T09:10:59;22.40;54.40
67817;DHT22;54614;47.576;7.524;2023-01-15T09:13:27;22.50;54.50
67817;DHT22;54614;47.576;7.524;2023-01-15T09:15:59;22.40;55.10
67817;DHT22;54614;47.576;7.524;2023-01-15T09:18:26;22.50;54.20
67817;DHT22;54614;47.576;7.524;2023-01-15T09:20:52;22.60;53.90
67817;DHT22;54614;47.576;7.524;2023-01-15T09:23:18;22.60;53.80
67817;DHT22;54614;47.576;7.524;2023-01-15T09:25:57;22.60;53.60
67817;DHT22;54614;47.576;7.524;2023-01-15T09:28:26;22.60;53.40
67817;DHT22;54614;47.576;7.524;2023-01-15T09:30:52;22.60;53.30
67817;DHT22;54614;47.576;7.524;2023-01-15T09:33:18;22.60;53.40
67817;DHT22;54614;47.576;7.524;2023-01-15T09:35:44;22.70;53.70
67817;DHT22;54614;47.576;7.524;2023-01-15T09:38:11;22.60;53.20
67817;DHT22;54614;47.576;7.524;2023-01-15T09:47:10;22.70;53.20
67817;DHT22;54614;47.576;7.524;2023-01-15T09:50:26;22.60;53.10
67817;DHT22;54614;47.576;7.524;2023-01-15T09:56:29;22.60;52.90
67817;DHT22;54614;47.576;7.524;2023-01-15T09:59:05;22.60;52.80
67817;DHT22;54614;47.576;7.524;2023-01-15T10:01:59;22.70;52.90
67817;DHT22;54614;47.576;7.524;2023-01-15T10:04:48;22.60;52.80
67817;DHT22;54614;47.576;7.524;2023-01-15T10:10:31;22.70;52.80
67817;DHT22;54614;47.576;7.524;2023-01-15T10:13:07;22.70;57.30
67817;DHT22;54614;47.576;7.524;2023-01-15T10:15:44;22.60;55.80
67817;DHT22;54614;47.576;7.524;2023-01-15T10:18:19;22.60;55.30
67817;DHT22;54614;47.576;7.524;2023-01-15T10:21:03;22.60;54.10
67817;DHT22;54614;47.576;7.524;2023-01-15T10:26:52;22.60;53.80
67817;DHT22;54614;47.576;7.524;2023-01-15T10:37:19;22.80;55.80
67817;DHT22;54614;47.576;7.524;2023-01-15T10:45:55;23.10;54.40
67817;DHT22;54614;47.576;7.524;2023-01-15T10:51:06;23.30;54.30
67817;DHT22;54614;47.576;7.524;2023-01-15T10:56:46;23.30;54.20
67817;DHT22;54614;47.576;7.524;2023-01-15T10:59:20;23.40;54.20
67817;DHT22;54614;47.576;7.524;2023-01-15T11:01:58;23.40;54.20
67817;DHT22;54614;47.576;7.524;2023-01-15T11:04:30;23.50;54.20
67817;DHT22;54614;47.576;7.524;2023-01-15T11:06:57;23.50;54.10
67817;DHT22;54614;47.576;7.524;2023-01-15T11:09:25;23.50;54.20
67817;DHT22;54614;47.576;7.524;2023-01-15T11:14:47;23.60;54.10
67817;DHT22;54614;47.576;7.524;2023-01-15T11:17:34;23.60;54.00
67817;DHT22;54614;47.576;7.524;2023-01-15T11:20:32;23.70;54.40
67817;DHT22;54614;47.576;7.524;2023-01-15T11:23:33;23.70;54.70
67817;DHT22;54614;47.576;7.524;2023-01-15T11:26:00;23.70;54.50
67817;DHT22;54614;47.576;7.524;2023-01-15T11:28:45;23.70;54.40
67817;DHT22;54614;47.576;7.524;2023-01-15T11:31:12;23.70;54.30
67817;DHT22;54614;47.576;7.524;2023-01-15T11:33:39;23.70;54.30
67817;DHT22;54614;47.576;7.524;2023-01-15T11:36:21;23.80;54.70
67817;DHT22;54614;47.576;7.524;2023-01-15T11:38:50;23.80;55.10
67817;DHT22;54614;47.576;7.524;2023-01-15T11:43:55;23.90;55.30
67817;DHT22;54614;47.576;7.524;2023-01-15T11:46:45;23.90;55.30
67817;DHT22;54614;47.576;7.524;2023-01-15T11:49:29;23.80;55.30
67817;DHT22;54614;47.576;7.524;2023-01-15T11:52:20;23.90;55.40
67817;DHT22;54614;47.576;7.524;2023-01-15T11:54:51;23.80;55.30
67817;DHT22;54614;47.576;7.524;2023-01-15T11:57:27;23.80;55.10
67817;DHT22;54614;47.576;7.524;2023-01-15T11:59:56;23.80;55.10
67817;DHT22;54614;47.576;7.524;2023-01-15T12:05:17;23.80;55.10
67817;DHT22;54614;47.576;7.524;2023-01-15T12:07:51;23.80;55.10
67817;DHT22;54614;47.576;7.524;2023-01-15T12:10:24;23.80;55.10
67817;DHT22;54614;47.576;7.524;2023-01-15T12:49:31;23.10;54.30
67817;DHT22;54614;47.576;7.524;2023-01-15T12:52:04;23.20;54.70
67817;DHT22;54614;47.576;7.524;2023-01-15T12:54:47;23.20;54.50
67817;DHT22;54614;47.576;7.524;2023-01-15T12:57:43;23.30;55.10
67817;DHT22;54614;47.576;7.524;2023-01-15T13:00:19;23.20;54.60
67817;DHT22;54614;47.576;7.524;2023-01-15T13:03:27;23.20;54.60
67817;DHT22;54614;47.576;7.524;2023-01-15T13:06:01;23.20;54.80
67817;DHT22;54614;47.576;7.524;2023-01-15T13:08:48;23.20;55.30
67817;DHT22;54614;47.576;7.524;2023-01-15T13:11:35;23.20;55.20
67817;DHT22;54614;47.576;7.524;2023-01-15T13:14:01;23.20;55.00
67817;DHT22;54614;47.576;7.524;2023-01-15T13:21:58;23.50;54.10
67817;DHT22;54614;47.576;7.524;2023-01-15T13:38:54;23.70;54.10
67817;DHT22;54614;47.576;7.524;2023-01-15T13:41:28;23.70;53.90
67817;DHT22;54614;47.576;7.524;2023-01-15T13:44:31;23.80;53.90
67817;DHT22;54614;47.576;7.524;2023-01-15T13:47:05;23.80;53.70
67817;DHT22;54614;47.576;7.524;2023-01-15T13:49:39;23.80;53.70
67817;DHT22;54614;47.576;7.524;2023-01-15T13:52:26;23.80;53.60
67817;DHT22;54614;47.576;7.524;2023-01-15T13:55:09;23.80;53.50
67817;DHT22;54614;47.576;7.524;2023-01-15T13:57:44;23.90;53.40
67817;DHT22;54614;47.576;7.524;2023-01-15T14:00:30;23.80;53.30
67817;DHT22;54614;47.576;7.524;2023-01-15T14:02:59;23.90;53.40
67817;DHT22;54614;47.576;7.524;2023-01-15T14:05:32;23.80;53.40
67817;DHT22;54614;47.576;7.524;2023-01-15T14:08:14;23.90;53.30
67817;DHT22;54614;47.576;7.524;2023-01-15T14:10:41;23.90;53.20
67817;DHT22;54614;47.576;7.524;2023-01-15T14:19:15;23.80;53.00
67817;DHT22;54614;47.576;7.524;2023-01-15T14:24:42;23.90;53.00
67817;DHT22;54614;47.576;7.524;2023-01-15T14:35:53;23.90;52.70
67817;DHT22;54614;47.576;7.524;2023-01-15T14:38:23;24.00;52.80
67817;DHT22;54614;47.576;7.524;2023-01-15T14:40:58;23.90;53.00
67817;DHT22;54614;47.576;7.524;2023-01-15T14:43:32;23.90;52.80
67817;DHT22;54614;47.576;7.524;2023-01-15T14:46:20;23.90;52.90
67817;DHT22;54614;47.576;7.524;2023-01-15T14:48:52;23.90;53.00
67817;DHT22;54614;47.576;7.524;2023-01-15T14:51:27;23.90;53.20
67817;DHT22;54614;47.576;7.524;2023-01-15T14:54:10;23.90;53.50
67817;DHT22;54614;47.576;7.524;2023-01-15T14:56:51;23.70;53.90
67817;DHT22;54614;47.576;7.524;2023-01-15T15:02:24;23.60;54.00
67817;DHT22;54614;47.576;7.524;2023-01-15T15:05:03;23.70;53.50
67817;DHT22;54614;47.576;7.524;2023-01-15T15:07:39;23.70;53.50
67817;DHT22;54614;47.576;7.524;2023-01-15T15:10:36;23.80;53.50
67817;DHT22;54614;47.576;7.524;2023-01-15T15:16:08;23.80;53.50
67817;DHT22;54614;47.576;7.524;2023-01-15T15:19:01;23.80;53.50
67817;DHT22;54614;47.576;7.524;2023-01-15T15:21:40;23.90;53.30
67817;DHT22;54614;47.576;7.524;2023-01-15T15:24:28;23.80;53.30
67817;DHT22;54614;47.576;7.524;2023-01-15T15:27:17;23.80;53.10
67817;DHT22;54614;47.576;7.524;2023-01-15T15:29:45;23.90;53.20
67817;DHT22;54614;47.576;7.524;2023-01-15T15:32:20;23.90;53.30
67817;DHT22;54614;47.576;7.524;2023-01-15T15:34:49;23.90;53.20
67817;DHT22;54614;47.576;7.524;2023-01-15T15:37:23;23.90;53.40
67817;DHT22;54614;47.576;7.524;2023-01-15T15:40:03;23.90;56.20
67817;DHT22;54614;47.576;7.524;2023-01-15T15:45:53;24.00;59.20
67817;DHT22;54614;47.576;7.524;2023-01-15T15:48:39;24.00;58.00
67817;DHT22;54614;47.576;7.524;2023-01-15T15:54:20;24.10;56.80
67817;DHT22;54614;47.576;7.524;2023-01-15T15:57:12;24.10;55.80
67817;DHT22;54614;47.576;7.524;2023-01-15T15:59:43;24.10;56.60
67817;DHT22;54614;47.576;7.524;2023-01-15T16:04:53;24.20;57.40
67817;DHT22;54614;47.576;7.524;2023-01-15T16:10:13;24.30;59.90
67817;DHT22;54614;47.576;7.524;2023-01-15T16:12:51;24.30;59.90
67817;DHT22;54614;47.576;7.524;2023-01-15T16:17:54;24.30;56.90
67817;DHT22;54614;47.576;7.524;2023-01-15T16:20:22;24.30;56.40
67817;DHT22;54614;47.576;7.524;2023-01-15T16:23:02;24.30;56.90
67817;DHT22;54614;47.576;7.524;2023-01-15T16:27:59;24.40;56.20
67817;DHT22;54614;47.576;7.524;2023-01-15T16:30:27;24.40;55.40
67817;DHT22;54614;47.576;7.524;2023-01-15T16:33:00;24.40;55.60
67817;DHT22;54614;47.576;7.524;2023-01-15T16:35:30;24.50;55.90
67817;DHT22;54614;47.576;7.524;2023-01-15T16:38:00;24.50;55.80
67817;DHT22;54614;47.576;7.524;2023-01-15T16:40:34;24.50;55.60
67817;DHT22;54614;47.576;7.524;2023-01-15T16:43:15;24.50;55.90
67817;DHT22;54614;47.576;7.524;2023-01-15T16:46:06;24.50;55.00
67817;DHT22;54614;47.576;7.524;2023-01-15T16:48:45;24.60;56.40
67817;DHT22;54614;47.576;7.524;2023-01-15T16:51:32;24.60;55.80
67817;DHT22;54614;47.576;7.524;2023-01-15T16:54:04;24.60;54.50
67817;DHT22;54614;47.576;7.524;2023-01-15T16:58:59;24.50;53.80
67817;DHT22;54614;47.576;7.524;2023-01-15T17:01:38;24.40;54.40
67817;DHT22;54614;47.576;7.524;2023-01-15T17:09:48;24.30;53.50
67817;DHT22;54614;47.576;7.524;2023-01-15T17:12:32;24.30;53.40
67817;DHT22;54614;47.576;7.524;2023-01-15T17:17:45;24.40;52.60
67817;DHT22;54614;47.576;7.524;2023-01-15T17:20:14;24.40;52.50
67817;DHT22;54614;47.576;7.524;2023-01-15T17:22:44;24.40;52.30
67817;DHT22;54614;47.576;7.524;2023-01-15T17:27:51;24.40;52.00
67817;DHT22;54614;47.576;7.524;2023-01-15T17:30:18;24.50;52.10
67817;DHT22;54614;47.576;7.524;2023-01-15T17:32:45;24.50;51.90
67817;DHT22;54614;47.576;7.524;2023-01-15T17:35:21;24.50;51.80
67817;DHT22;54614;47.576;7.524;2023-01-15T17:37:49;24.50;51.90
67817;DHT22;54614;47.576;7.524;2023-01-15T17:40:15;24.40;51.90
67817;DHT22;54614;47.576;7.524;2023-01-15T17:42:42;24.40;51.90
67817;DHT22;54614;47.576;7.524;2023-01-15T17:45:21;24.30;52.00
67817;DHT22;54614;47.576;7.524;2023-01-15T17:47:51;24.30;51.90
67817;DHT22;54614;47.576;7.524;2023-01-15T17:50:18;24.30;51.90
67817;DHT22;54614;47.576;7.524;2023-01-15T17:52:45;24.30;51.80
67817;DHT22;54614;47.576;7.524;2023-01-15T17:55:14;24.30;51.70
67817;DHT22;54614;47.576;7.524;2023-01-15T17:58:00;24.20;51.90
67817;DHT22;54614;47.576;7.524;2023-01-15T18:00:45;24.20;52.10
67817;DHT22;54614;47.576;7.524;2023-01-15T18:03:31;24.10;52.00
67817;DHT22;54614;47.576;7.524;2023-01-15T18:06:19;24.10;52.00
67817;DHT22;54614;47.576;7.524;2023-01-15T18:08:51;24.10;52.00
67817;DHT22;54614;47.576;7.524;2023-01-15T18:11:20;24.10;52.10
67817;DHT22;54614;47.576;7.524;2023-01-15T18:13:46;24.10;51.70
67817;DHT22;54614;47.576;7.524;2023-01-15T18:16:12;24.10;51.50
67817;DHT22;54614;47.576;7.524;2023-01-15T18:18:38;24.00;51.70
67817;DHT22;54614;47.576;7.524;2023-01-15T18:21:04;24.10;51.70
67817;DHT22;54614;47.576;7.524;2023-01-15T18:23:30;24.00;51.80
67817;DHT22;54614;47.576;7.524;2023-01-15T18:26:04;24.00;51.60
67817;DHT22;54614;47.576;7.524;2023-01-15T18:28:32;24.00;51.80
67817;DHT22;54614;47.576;7.524;2023-01-15T18:31:02;23.90;51.50
67817;DHT22;54614;47.576;7.524;2023-01-15T18:33:28;23.90;51.60
67817;DHT22;54614;47.576;7.524;2023-01-15T19:12:57;23.70;51.10
67817;DHT22;54614;47.576;7.524;2023-01-15T19:15:40;23.70;51.20
67817;DHT22;54614;47.576;7.524;2023-01-15T19:18:25;23.70;51.40
67817;DHT22;54614;47.576;7.524;2023-01-15T19:21:17;23.60;51.10
67817;DHT22;54614;47.576;7.524;2023-01-15T19:23:47;23.60;51.10
67817;DHT22;54614;47.576;7.524;2023-01-15T19:26:15;23.60;51.30
67817;DHT22;54614;47.576;7.524;2023-01-15T19:28:41;23.60;51.20
67817;DHT22;54614;47.576;7.524;2023-01-15T19:31:08;23.60;51.40
67817;DHT22;54614;47.576;7.524;2023-01-15T19:33:52;23.60;51.50
67817;DHT22;54614;47.576;7.524;2023-01-15T19:36:23;23.60;51.60
67817;DHT22;54614;47.576;7.524;2023-01-15T19:38:48;23.60;51.70
67817;DHT22;54614;47.576;7.524;2023-01-15T19:41:14;23.50;51.80